sensor_id;sensor_type;location;lat;lon;timestamp;temperature;humidity
14850;DHT22;7517;48.400;11.770;2024-03-06T00:01:03;12.60;74.10
14850;DHT22;7517;48.400;11.770;2024-03-06T00:03:30;12.60;74.20
14850;DHT22;7517;48.400;11.770;2024-03-06T00:05:58;12.60;74.30
14850;DHT22;7517;48.400;11.770;2024-03-06T00:08:25;12.60;74.30
14850;DHT22;7517;48.400;11.770;2024-03-06T00:10:54;12.60;74.20
14850;DHT22;7517;48.400;11.770;2024-03-06T00:13:21;12.60;74.10
14850;DHT22;7517;48.400;11.770;2024-03-06T00:15:48;12.60;74.00
14850;DHT22;7517;48.400;11.770;2024-03-06T00:18:17;12.60;74.00
14850;DHT22;7517;48.400;11.770;2024-03-06T00:20:44;12.60;74.20
14850;DHT22;7517;48.400;11.770;2024-03-06T00:23:12;12.60;74.20
14850;DHT22;7517;48.400;11.770;2024-03-06T00:25:39;12.60;74.10
14850;DHT22;7517;48.400;11.770;2024-03-06T00:28:06;12.50;74.10
14850;DHT22;7517;48.400;11.770;2024-03-06T00:30:33;12.50;74.00
14850;DHT22;7517;48.400;11.770;2024-03-06T00:33:01;12.50;74.00
14850;DHT22;7517;48.400;11.770;2024-03-06T00:35:30;12.50;74.00
14850;DHT22;7517;48.400;11.770;2024-03-06T00:37:59;12.50;73.90
14850;DHT22;7517;48.400;11.770;2024-03-06T00:40:28;12.50;73.90
14850;DHT22;7517;48.400;11.770;2024-03-06T00:42:57;12.50;73.80
14850;DHT22;7517;48.400;11.770;2024-03-06T00:45:24;12.50;73.80
14850;DHT22;7517;48.400;11.770;2024-03-06T00:47:52;12.50;73.80
14850;DHT22;7517;48.400;11.770;2024-03-06T00:50:19;12.40;73.90
14850;DHT22;7517;48.400;11.770;2024-03-06T00:52:49;12.40;73.70
14850;DHT22;7517;48.400;11.770;2024-03-06T00:55:16;12.40;73.70
14850;DHT22;7517;48.400;11.770;2024-03-06T00:57:43;12.30;73.80
14850;DHT22;7517;48.400;11.770;2024-03-06T01:00:13;12.40;73.90
14850;DHT22;7517;48.400;11.770;2024-03-06T01:02:42;12.40;74.00
14850;DHT22;7517;48.400;11.770;2024-03-06T01:05:09;12.40;74.10
14850;DHT22;7517;48.400;11.770;2024-03-06T01:07:38;12.40;74.00
14850;DHT22;7517;48.400;11.770;2024-03-06T01:10:08;12.30;73.90
14850;DHT22;7517;48.400;11.770;2024-03-06T01:12:37;12.30;74.10
14850;DHT22;7517;48.400;11.770;2024-03-06T01:15:05;12.30;74.10
14850;DHT22;7517;48.400;11.770;2024-03-06T01:17:35;12.30;74.20
14850;DHT22;7517;48.400;11.770;2024-03-06T01:20:03;12.30;74.00
14850;DHT22;7517;48.400;11.770;2024-03-06T01:22:32;12.30;74.10
14850;DHT22;7517;48.400;11.770;2024-03-06T01:25:00;12.30;74.10
14850;DHT22;7517;48.400;11.770;2024-03-06T01:27:32;12.20;74.20
14850;DHT22;7517;48.400;11.770;2024-03-06T01:29:59;12.20;74.10
14850;DHT22;7517;48.400;11.770;2024-03-06T01:32:26;12.20;74.10
14850;DHT22;7517;48.400;11.770;2024-03-06T01:34:56;12.20;74.20
14850;DHT22;7517;48.400;11.770;2024-03-06T01:37:25;12.20;74.20
14850;DHT22;7517;48.400;11.770;2024-03-06T01:39:52;12.20;74.10
14850;DHT22;7517;48.400;11.770;2024-03-06T01:42:20;12.20;74.10
14850;DHT22;7517;48.400;11.770;2024-03-06T01:44:48;12.20;74.00
14850;DHT22;7517;48.400;11.770;2024-03-06T01:47:16;12.10;74.10
14850;DHT22;7517;48.400;11.770;2024-03-06T01:49:44;12.10;74.10
14850;DHT22;7517;48.400;11.770;2024-03-06T01:52:13;12.10;74.00
14850;DHT22;7517;48.400;11.770;2024-03-06T01:54:44;12.10;74.10
14850;DHT22;7517;48.400;11.770;2024-03-06T01:57:13;12.10;74.80
14850;DHT22;7517;48.400;11.770;2024-03-06T01:59:43;12.10;74.10
14850;DHT22;7517;48.400;11.770;2024-03-06T02:02:12;12.00;74.10
14850;DHT22;7517;48.400;11.770;2024-03-06T02:04:40;12.00;74.20
14850;DHT22;7517;48.400;11.770;2024-03-06T02:07:09;12.00;74.10
14850;DHT22;7517;48.400;11.770;2024-03-06T02:09:37;12.00;74.10
14850;DHT22;7517;48.400;11.770;2024-03-06T02:12:05;12.00;74.10
14850;DHT22;7517;48.400;11.770;2024-03-06T02:14:34;11.90;74.20
14850;DHT22;7517;48.400;11.770;2024-03-06T02:17:00;11.90;74.20
14850;DHT22;7517;48.400;11.770;2024-03-06T02:19:40;11.90;74.30
14850;DHT22;7517;48.400;11.770;2024-03-06T02:22:10;11.90;74.50
14850;DHT22;7517;48.400;11.770;2024-03-06T02:24:42;11.90;74.40
14850;DHT22;7517;48.400;11.770;2024-03-06T02:27:11;11.90;74.20
14850;DHT22;7517;48.400;11.770;2024-03-06T02:29:38;11.90;75.00
14850;DHT22;7517;48.400;11.770;2024-03-06T02:32:06;11.90;74.30
14850;DHT22;7517;48.400;11.770;2024-03-06T02:34:34;11.80;74.20
14850;DHT22;7517;48.400;11.770;2024-03-06T02:37:01;11.80;74.40
14850;DHT22;7517;48.400;11.770;2024-03-06T02:39:30;11.80;74.40
14850;DHT22;7517;48.400;11.770;2024-03-06T02:41:57;11.80;74.20
14850;DHT22;7517;48.400;11.770;2024-03-06T02:44:25;11.80;74.20
14850;DHT22;7517;48.400;11.770;2024-03-06T02:46:55;11.80;74.20
14850;DHT22;7517;48.400;11.770;2024-03-06T02:49:22;11.80;74.30
14850;DHT22;7517;48.400;11.770;2024-03-06T02:51:49;11.80;74.40
14850;DHT22;7517;48.400;11.770;2024-03-06T02:54:17;11.80;74.50
14850;DHT22;7517;48.400;11.770;2024-03-06T02:56:46;11.70;74.40
14850;DHT22;7517;48.400;11.770;2024-03-06T02:59:14;11.70;74.40
14850;DHT22;7517;48.400;11.770;2024-03-06T03:01:41;11.70;74.40
14850;DHT22;7517;48.400;11.770;2024-03-06T03:04:10;11.70;74.50
14850;DHT22;7517;48.400;11.770;2024-03-06T03:06:37;11.70;74.60
14850;DHT22;7517;48.400;11.770;2024-03-06T03:09:05;11.70;74.50
14850;DHT22;7517;48.400;11.770;2024-03-06T03:11:32;11.80;74.70
14850;DHT22;7517;48.400;11.770;2024-03-06T03:14:02;11.70;74.60
14850;DHT22;7517;48.400;11.770;2024-03-06T03:16:30;11.70;74.60
14850;DHT22;7517;48.400;11.770;2024-03-06T03:18:58;11.70;74.60
14850;DHT22;7517;48.400;11.770;2024-03-06T03:21:25;11.70;74.50
14850;DHT22;7517;48.400;11.770;2024-03-06T03:23:53;11.70;74.70
14850;DHT22;7517;48.400;11.770;2024-03-06T03:26:20;11.70;74.90
14850;DHT22;7517;48.400;11.770;2024-03-06T03:28:47;11.70;74.70
14850;DHT22;7517;48.400;11.770;2024-03-06T03:31:16;11.70;74.70
14850;DHT22;7517;48.400;11.770;2024-03-06T03:33:43;11.70;74.70
14850;DHT22;7517;48.400;11.770;2024-03-06T03:36:11;11.70;74.70
14850;DHT22;7517;48.400;11.770;2024-03-06T03:38:39;11.80;74.80
14850;DHT22;7517;48.400;11.770;2024-03-06T03:41:08;11.80;74.90
14850;DHT22;7517;48.400;11.770;2024-03-06T03:43:35;11.80;74.80
14850;DHT22;7517;48.400;11.770;2024-03-06T03:46:03;11.80;74.90
14850;DHT22;7517;48.400;11.770;2024-03-06T03:48:33;11.80;75.00
14850;DHT22;7517;48.400;11.770;2024-03-06T03:51:02;11.80;74.80
14850;DHT22;7517;48.400;11.770;2024-03-06T03:53:30;11.90;74.80
14850;DHT22;7517;48.400;11.770;2024-03-06T03:55:58;11.90;74.70
14850;DHT22;7517;48.400;11.770;2024-03-06T03:58:25;11.90;74.70
14850;DHT22;7517;48.400;11.770;2024-03-06T04:00:52;11.90;75.30
14850;DHT22;7517;48.400;11.770;2024-03-06T04:03:21;11.90;74.60
14850;DHT22;7517;48.400;11.770;2024-03-06T04:05:51;11.90;74.50
14850;DHT22;7517;48.400;11.770;2024-03-06T04:08:18;11.90;74.50
14850;DHT22;7517;48.400;11.770;2024-03-06T04:10:45;12.00;74.50
14850;DHT22;7517;48.400;11.770;2024-03-06T04:13:12;12.00;74.60
14850;DHT22;7517;48.400;11.770;2024-03-06T04:15:43;12.00;74.60
14850;DHT22;7517;48.400;11.770;2024-03-06T04:18:11;12.00;74.40
14850;DHT22;7517;48.400;11.770;2024-03-06T04:20:38;12.00;74.40
14850;DHT22;7517;48.400;11.770;2024-03-06T04:23:07;12.00;74.20
14850;DHT22;7517;48.400;11.770;2024-03-06T04:25:35;12.00;74.30
14850;DHT22;7517;48.400;11.770;2024-03-06T04:28:03;11.90;74.30
14850;DHT22;7517;48.400;11.770;2024-03-06T04:30:33;12.00;74.30
14850;DHT22;7517;48.400;11.770;2024-03-06T04:33:00;12.00;74.10
14850;DHT22;7517;48.400;11.770;2024-03-06T04:35:28;12.00;74.90
14850;DHT22;7517;48.400;11.770;2024-03-06T04:37:55;12.00;74.20
14850;DHT22;7517;48.400;11.770;2024-03-06T04:40:24;12.00;74.10
14850;DHT22;7517;48.400;11.770;2024-03-06T04:42:52;12.00;74.30
14850;DHT22;7517;48.400;11.770;2024-03-06T04:45:19;12.00;74.20
14850;DHT22;7517;48.400;11.770;2024-03-06T04:47:46;12.00;74.20
14850;DHT22;7517;48.400;11.770;2024-03-06T04:50:14;11.90;74.20
14850;DHT22;7517;48.400;11.770;2024-03-06T04:52:41;12.00;74.20
14850;DHT22;7517;48.400;11.770;2024-03-06T04:55:10;12.00;74.30
14850;DHT22;7517;48.400;11.770;2024-03-06T04:57:43;12.00;74.40
14850;DHT22;7517;48.400;11.770;2024-03-06T05:00:12;12.00;74.60
14850;DHT22;7517;48.400;11.770;2024-03-06T05:02:40;12.00;74.40
14850;DHT22;7517;48.400;11.770;2024-03-06T05:05:08;11.90;74.40
14850;DHT22;7517;48.400;11.770;2024-03-06T05:07:36;11.70;74.30
14850;DHT22;7517;48.400;11.770;2024-03-06T05:10:04;12.00;74.40
14850;DHT22;7517;48.400;11.770;2024-03-06T05:12:34;12.00;74.40
14850;DHT22;7517;48.400;11.770;2024-03-06T05:15:05;12.00;74.40
14850;DHT22;7517;48.400;11.770;2024-03-06T05:17:34;12.00;74.40
14850;DHT22;7517;48.400;11.770;2024-03-06T05:20:01;12.00;74.30
14850;DHT22;7517;48.400;11.770;2024-03-06T05:22:29;12.00;74.20
14850;DHT22;7517;48.400;11.770;2024-03-06T05:24:57;12.00;74.10
14850;DHT22;7517;48.400;11.770;2024-03-06T05:27:24;12.00;74.20
14850;DHT22;7517;48.400;11.770;2024-03-06T05:29:52;12.00;74.10
14850;DHT22;7517;48.400;11.770;2024-03-06T05:32:22;12.00;74.00
14850;DHT22;7517;48.400;11.770;2024-03-06T05:34:50;12.00;74.10
14850;DHT22;7517;48.400;11.770;2024-03-06T05:37:18;11.90;74.20
14850;DHT22;7517;48.400;11.770;2024-03-06T05:39:45;11.90;74.30
14850;DHT22;7517;48.400;11.770;2024-03-06T05:42:13;11.90;74.30
14850;DHT22;7517;48.400;11.770;2024-03-06T05:44:40;11.90;74.30
14850;DHT22;7517;48.400;11.770;2024-03-06T05:47:07;11.90;74.50
14850;DHT22;7517;48.400;11.770;2024-03-06T05:49:36;11.80;74.40
14850;DHT22;7517;48.400;11.770;2024-03-06T05:52:04;11.80;74.40
14850;DHT22;7517;48.400;11.770;2024-03-06T05:54:31;11.80;74.40
14850;DHT22;7517;48.400;11.770;2024-03-06T05:57:00;11.80;74.50
14850;DHT22;7517;48.400;11.770;2024-03-06T05:59:28;11.80;74.70
14850;DHT22;7517;48.400;11.770;2024-03-06T06:01:56;11.80;74.90
14850;DHT22;7517;48.400;11.770;2024-03-06T06:04:23;11.80;74.90
14850;DHT22;7517;48.400;11.770;2024-03-06T06:06:52;11.70;74.80
14850;DHT22;7517;48.400;11.770;2024-03-06T06:09:20;11.70;74.80
14850;DHT22;7517;48.400;11.770;2024-03-06T06:11:47;11.70;74.90
14850;DHT22;7517;48.400;11.770;2024-03-06T06:14:16;11.70;75.00
14850;DHT22;7517;48.400;11.770;2024-03-06T06:16:43;11.60;75.70
14850;DHT22;7517;48.400;11.770;2024-03-06T06:19:10;11.70;75.20
14850;DHT22;7517;48.400;11.770;2024-03-06T06:21:38;11.70;75.60
14850;DHT22;7517;48.400;11.770;2024-03-06T06:24:07;11.80;75.30
14850;DHT22;7517;48.400;11.770;2024-03-06T06:26:35;11.80;75.30
14850;DHT22;7517;48.400;11.770;2024-03-06T06:29:02;11.90;75.30
14850;DHT22;7517;48.400;11.770;2024-03-06T06:31:29;11.90;75.30
14850;DHT22;7517;48.400;11.770;2024-03-06T06:33:56;12.00;75.10
14850;DHT22;7517;48.400;11.770;2024-03-06T06:36:24;12.00;75.00
14850;DHT22;7517;48.400;11.770;2024-03-06T06:38:52;12.10;75.20
14850;DHT22;7517;48.400;11.770;2024-03-06T06:41:22;12.10;75.20
14850;DHT22;7517;48.400;11.770;2024-03-06T06:43:50;12.10;75.20
14850;DHT22;7517;48.400;11.770;2024-03-06T06:46:18;12.10;74.90
14850;DHT22;7517;48.400;11.770;2024-03-06T06:48:46;12.20;75.00
14850;DHT22;7517;48.400;11.770;2024-03-06T06:51:16;12.20;74.90
14850;DHT22;7517;48.400;11.770;2024-03-06T06:53:43;12.20;74.80
14850;DHT22;7517;48.400;11.770;2024-03-06T06:56:10;12.20;74.70
14850;DHT22;7517;48.400;11.770;2024-03-06T06:58:39;12.20;74.90
14850;DHT22;7517;48.400;11.770;2024-03-06T07:01:08;12.20;75.00
14850;DHT22;7517;48.400;11.770;2024-03-06T07:03:36;12.30;75.10
14850;DHT22;7517;48.400;11.770;2024-03-06T07:06:04;12.30;75.20
14850;DHT22;7517;48.400;11.770;2024-03-06T07:08:32;12.30;75.10
14850;DHT22;7517;48.400;11.770;2024-03-06T07:11:00;12.30;75.20
14850;DHT22;7517;48.400;11.770;2024-03-06T07:13:27;12.30;75.10
14850;DHT22;7517;48.400;11.770;2024-03-06T07:15:56;12.30;75.10
14850;DHT22;7517;48.400;11.770;2024-03-06T07:18:23;12.30;75.90
14850;DHT22;7517;48.400;11.770;2024-03-06T07:20:50;12.40;75.30
14850;DHT22;7517;48.400;11.770;2024-03-06T07:23:18;12.40;75.30
14850;DHT22;7517;48.400;11.770;2024-03-06T07:25:45;12.40;75.40
14850;DHT22;7517;48.400;11.770;2024-03-06T07:28:12;12.40;75.10
14850;DHT22;7517;48.400;11.770;2024-03-06T07:30:40;12.40;75.20
14850;DHT22;7517;48.400;11.770;2024-03-06T07:33:09;12.40;75.10
14850;DHT22;7517;48.400;11.770;2024-03-06T07:35:36;12.50;75.10
14850;DHT22;7517;48.400;11.770;2024-03-06T07:38:03;12.50;75.10
14850;DHT22;7517;48.400;11.770;2024-03-06T07:40:31;12.50;74.90
14850;DHT22;7517;48.400;11.770;2024-03-06T07:42:58;12.60;75.10
14850;DHT22;7517;48.400;11.770;2024-03-06T07:45:26;12.60;75.10
14850;DHT22;7517;48.400;11.770;2024-03-06T07:47:54;12.60;75.10
14850;DHT22;7517;48.400;11.770;2024-03-06T07:50:22;12.70;75.10
14850;DHT22;7517;48.400;11.770;2024-03-06T07:52:50;12.70;75.10
14850;DHT22;7517;48.400;11.770;2024-03-06T07:55:17;12.80;75.20
14850;DHT22;7517;48.400;11.770;2024-03-06T07:57:48;12.80;75.80
14850;DHT22;7517;48.400;11.770;2024-03-06T08:00:16;12.80;75.20
14850;DHT22;7517;48.400;11.770;2024-03-06T08:02:45;12.90;75.20
14850;DHT22;7517;48.400;11.770;2024-03-06T08:05:15;12.90;75.00
14850;DHT22;7517;48.400;11.770;2024-03-06T08:07:45;13.00;75.00
14850;DHT22;7517;48.400;11.770;2024-03-06T08:10:14;13.00;75.50
14850;DHT22;7517;48.400;11.770;2024-03-06T08:12:44;13.10;74.80
14850;DHT22;7517;48.400;11.770;2024-03-06T08:15:14;13.10;74.90
14850;DHT22;7517;48.400;11.770;2024-03-06T08:17:42;13.20;75.00
14850;DHT22;7517;48.400;11.770;2024-03-06T08:20:11;13.20;74.80
14850;DHT22;7517;48.400;11.770;2024-03-06T08:22:41;13.30;75.00
14850;DHT22;7517;48.400;11.770;2024-03-06T08:25:12;13.30;75.10
14850;DHT22;7517;48.400;11.770;2024-03-06T08:27:40;13.30;75.10
14850;DHT22;7517;48.400;11.770;2024-03-06T08:30:09;13.40;75.30
14850;DHT22;7517;48.400;11.770;2024-03-06T08:32:37;13.50;75.30
14850;DHT22;7517;48.400;11.770;2024-03-06T08:35:05;13.50;75.20
14850;DHT22;7517;48.400;11.770;2024-03-06T08:37:36;13.60;75.20
14850;DHT22;7517;48.400;11.770;2024-03-06T08:40:07;13.60;74.80
14850;DHT22;7517;48.400;11.770;2024-03-06T08:42:40;13.70;74.60
14850;DHT22;7517;48.400;11.770;2024-03-06T08:45:08;13.80;74.50
14850;DHT22;7517;48.400;11.770;2024-03-06T08:47:36;13.80;74.40
14850;DHT22;7517;48.400;11.770;2024-03-06T08:50:04;13.90;74.70
14850;DHT22;7517;48.400;11.770;2024-03-06T08:52:34;14.00;74.60
14850;DHT22;7517;48.400;11.770;2024-03-06T08:55:01;14.00;74.50
14850;DHT22;7517;48.400;11.770;2024-03-06T08:57:31;14.10;74.60
14850;DHT22;7517;48.400;11.770;2024-03-06T08:59:58;14.20;74.60
14850;DHT22;7517;48.400;11.770;2024-03-06T09:02:28;14.30;74.40
14850;DHT22;7517;48.400;11.770;2024-03-06T09:04:59;14.30;74.10
14850;DHT22;7517;48.400;11.770;2024-03-06T09:07:30;14.40;73.90
14850;DHT22;7517;48.400;11.770;2024-03-06T09:10:03;14.50;73.90
14850;DHT22;7517;48.400;11.770;2024-03-06T09:12:33;14.60;73.80
14850;DHT22;7517;48.400;11.770;2024-03-06T09:15:13;14.70;73.90
14850;DHT22;7517;48.400;11.770;2024-03-06T09:17:41;14.70;73.30
14850;DHT22;7517;48.400;11.770;2024-03-06T09:20:10;14.80;73.40
14850;DHT22;7517;48.400;11.770;2024-03-06T09:22:38;14.80;73.10
14850;DHT22;7517;48.400;11.770;2024-03-06T09:25:06;14.90;72.60
14850;DHT22;7517;48.400;11.770;2024-03-06T09:27:35;14.90;72.30
14850;DHT22;7517;48.400;11.770;2024-03-06T09:30:03;15.00;72.10
14850;DHT22;7517;48.400;11.770;2024-03-06T09:32:30;15.00;72.00
14850;DHT22;7517;48.400;11.770;2024-03-06T09:34:58;15.10;72.10
14850;DHT22;7517;48.400;11.770;2024-03-06T09:37:26;15.10;72.30
14850;DHT22;7517;48.400;11.770;2024-03-06T09:39:53;15.10;72.00
14850;DHT22;7517;48.400;11.770;2024-03-06T09:42:21;15.20;71.70
14850;DHT22;7517;48.400;11.770;2024-03-06T09:44:50;15.20;71.50
14850;DHT22;7517;48.400;11.770;2024-03-06T09:47:22;15.20;71.10
14850;DHT22;7517;48.400;11.770;2024-03-06T09:49:51;15.20;70.40
14850;DHT22;7517;48.400;11.770;2024-03-06T09:52:20;15.20;70.50
14850;DHT22;7517;48.400;11.770;2024-03-06T09:54:53;15.10;70.30
14850;DHT22;7517;48.400;11.770;2024-03-06T09:57:22;15.10;70.20
14850;DHT22;7517;48.400;11.770;2024-03-06T09:59:51;15.10;70.20
14850;DHT22;7517;48.400;11.770;2024-03-06T10:02:28;15.10;69.70
14850;DHT22;7517;48.400;11.770;2024-03-06T10:05:02;15.10;69.40
14850;DHT22;7517;48.400;11.770;2024-03-06T10:07:29;15.10;69.70
14850;DHT22;7517;48.400;11.770;2024-03-06T10:09:56;15.10;69.40
14850;DHT22;7517;48.400;11.770;2024-03-06T10:12:24;15.10;69.60
14850;DHT22;7517;48.400;11.770;2024-03-06T10:14:53;15.10;70.70
14850;DHT22;7517;48.400;11.770;2024-03-06T10:17:22;15.10;69.90
14850;DHT22;7517;48.400;11.770;2024-03-06T10:19:58;15.20;70.10
14850;DHT22;7517;48.400;11.770;2024-03-06T10:22:30;15.20;70.00
14850;DHT22;7517;48.400;11.770;2024-03-06T10:24:58;15.20;70.00
14850;DHT22;7517;48.400;11.770;2024-03-06T10:27:26;15.30;69.80
14850;DHT22;7517;48.400;11.770;2024-03-06T10:30:07;15.30;69.50
14850;DHT22;7517;48.400;11.770;2024-03-06T10:32:42;15.30;69.50
14850;DHT22;7517;48.400;11.770;2024-03-06T10:35:18;15.30;70.00
14850;DHT22;7517;48.400;11.770;2024-03-06T10:37:47;15.40;70.20
14850;DHT22;7517;48.400;11.770;2024-03-06T10:40:15;15.40;70.00
14850;DHT22;7517;48.400;11.770;2024-03-06T10:42:45;15.40;70.00
14850;DHT22;7517;48.400;11.770;2024-03-06T10:45:14;16.30;70.20
14850;DHT22;7517;48.400;11.770;2024-03-06T10:47:46;15.50;69.40
14850;DHT22;7517;48.400;11.770;2024-03-06T10:50:15;15.60;69.00
14850;DHT22;7517;48.400;11.770;2024-03-06T10:52:44;15.60;69.00
14850;DHT22;7517;48.400;11.770;2024-03-06T10:55:15;15.60;69.20
14850;DHT22;7517;48.400;11.770;2024-03-06T10:57:44;15.60;69.10
14850;DHT22;7517;48.400;11.770;2024-03-06T11:00:16;15.60;69.00
14850;DHT22;7517;48.400;11.770;2024-03-06T11:02:49;15.60;68.90
14850;DHT22;7517;48.400;11.770;2024-03-06T11:05:25;15.60;69.10
14850;DHT22;7517;48.400;11.770;2024-03-06T11:07:53;15.50;68.20
14850;DHT22;7517;48.400;11.770;2024-03-06T11:10:31;15.50;67.10
14850;DHT22;7517;48.400;11.770;2024-03-06T11:12:59;15.40;66.90
14850;DHT22;7517;48.400;11.770;2024-03-06T11:15:30;15.30;67.00
14850;DHT22;7517;48.400;11.770;2024-03-06T11:21:31;15.20;66.60
14850;DHT22;7517;48.400;11.770;2024-03-06T11:24:18;15.10;66.20
14850;DHT22;7517;48.400;11.770;2024-03-06T11:26:48;15.00;67.20
14850;DHT22;7517;48.400;11.770;2024-03-06T11:29:18;15.00;67.60
14850;DHT22;7517;48.400;11.770;2024-03-06T11:32:11;14.90;67.60
14850;DHT22;7517;48.400;11.770;2024-03-06T11:34:39;14.90;67.40
14850;DHT22;7517;48.400;11.770;2024-03-06T11:37:07;14.80;67.30
14850;DHT22;7517;48.400;11.770;2024-03-06T11:39:45;14.80;66.80
14850;DHT22;7517;48.400;11.770;2024-03-06T11:42:15;14.70;66.60
14850;DHT22;7517;48.400;11.770;2024-03-06T11:44:54;14.70;67.50
14850;DHT22;7517;48.400;11.770;2024-03-06T11:47:24;14.60;66.50
14850;DHT22;7517;48.400;11.770;2024-03-06T11:49:53;14.50;67.00
14850;DHT22;7517;48.400;11.770;2024-03-06T11:52:22;14.50;67.10
14850;DHT22;7517;48.400;11.770;2024-03-06T11:54:51;14.40;67.00
14850;DHT22;7517;48.400;11.770;2024-03-06T11:57:22;14.40;67.20
14850;DHT22;7517;48.400;11.770;2024-03-06T11:59:55;14.30;67.30
14850;DHT22;7517;48.400;11.770;2024-03-06T12:02:24;14.30;67.00
14850;DHT22;7517;48.400;11.770;2024-03-06T12:04:51;14.30;67.00
14850;DHT22;7517;48.400;11.770;2024-03-06T12:07:28;14.20;66.80
14850;DHT22;7517;48.400;11.770;2024-03-06T12:09:59;14.20;66.50
14850;DHT22;7517;48.400;11.770;2024-03-06T12:12:27;14.10;66.40
14850;DHT22;7517;48.400;11.770;2024-03-06T12:15:14;14.00;66.20
14850;DHT22;7517;48.400;11.770;2024-03-06T12:18:03;13.90;66.30
14850;DHT22;7517;48.400;11.770;2024-03-06T12:20:32;13.90;66.60
14850;DHT22;7517;48.400;11.770;2024-03-06T12:23:02;13.80;66.90
14850;DHT22;7517;48.400;11.770;2024-03-06T12:25:35;13.80;67.10
14850;DHT22;7517;48.400;11.770;2024-03-06T12:28:07;13.80;66.90
14850;DHT22;7517;48.400;11.770;2024-03-06T12:30:43;13.70;67.00
14850;DHT22;7517;48.400;11.770;2024-03-06T12:33:27;13.70;67.00
14850;DHT22;7517;48.400;11.770;2024-03-06T12:36:08;14.00;66.80
14850;DHT22;7517;48.400;11.770;2024-03-06T12:38:44;13.60;66.40
14850;DHT22;7517;48.400;11.770;2024-03-06T12:41:38;13.60;67.00
14850;DHT22;7517;48.400;11.770;2024-03-06T12:44:06;12.90;66.70
14850;DHT22;7517;48.400;11.770;2024-03-06T12:46:34;13.60;67.20
14850;DHT22;7517;48.400;11.770;2024-03-06T12:49:03;13.70;67.20
14850;DHT22;7517;48.400;11.770;2024-03-06T12:51:30;13.70;66.80
14850;DHT22;7517;48.400;11.770;2024-03-06T12:53:58;13.70;66.80
14850;DHT22;7517;48.400;11.770;2024-03-06T12:56:32;13.70;67.30
14850;DHT22;7517;48.400;11.770;2024-03-06T12:58:59;13.70;67.50
14850;DHT22;7517;48.400;11.770;2024-03-06T13:01:27;13.80;67.10
14850;DHT22;7517;48.400;11.770;2024-03-06T13:03:54;13.80;66.80
14850;DHT22;7517;48.400;11.770;2024-03-06T13:06:25;13.90;67.00
14850;DHT22;7517;48.400;11.770;2024-03-06T13:08:54;13.90;67.10
14850;DHT22;7517;48.400;11.770;2024-03-06T13:11:21;13.90;67.50
14850;DHT22;7517;48.400;11.770;2024-03-06T13:13:49;14.00;66.70
14850;DHT22;7517;48.400;11.770;2024-03-06T13:16:19;14.00;66.50
14850;DHT22;7517;48.400;11.770;2024-03-06T13:18:47;14.10;65.80
14850;DHT22;7517;48.400;11.770;2024-03-06T13:21:15;14.10;65.60
14850;DHT22;7517;48.400;11.770;2024-03-06T13:23:44;14.10;65.40
14850;DHT22;7517;48.400;11.770;2024-03-06T13:26:19;14.10;65.10
14850;DHT22;7517;48.400;11.770;2024-03-06T13:28:53;14.20;64.90
14850;DHT22;7517;48.400;11.770;2024-03-06T13:31:20;14.20;65.30
14850;DHT22;7517;48.400;11.770;2024-03-06T13:33:48;14.20;65.40
14850;DHT22;7517;48.400;11.770;2024-03-06T13:36:15;14.20;65.50
14850;DHT22;7517;48.400;11.770;2024-03-06T13:38:44;14.20;65.50
14850;DHT22;7517;48.400;11.770;2024-03-06T13:41:12;14.30;65.50
14850;DHT22;7517;48.400;11.770;2024-03-06T13:43:39;14.30;65.40
14850;DHT22;7517;48.400;11.770;2024-03-06T13:46:07;14.40;64.70
14850;DHT22;7517;48.400;11.770;2024-03-06T13:48:34;14.40;64.20
14850;DHT22;7517;48.400;11.770;2024-03-06T13:51:02;14.50;64.10
14850;DHT22;7517;48.400;11.770;2024-03-06T13:53:30;14.50;63.80
14850;DHT22;7517;48.400;11.770;2024-03-06T13:55:59;14.50;63.90
14850;DHT22;7517;48.400;11.770;2024-03-06T13:58:28;14.60;64.00
14850;DHT22;7517;48.400;11.770;2024-03-06T14:00:55;14.60;63.90
14850;DHT22;7517;48.400;11.770;2024-03-06T14:03:22;14.60;63.60
14850;DHT22;7517;48.400;11.770;2024-03-06T14:05:50;14.60;63.30
14850;DHT22;7517;48.400;11.770;2024-03-06T14:08:21;14.60;63.20
14850;DHT22;7517;48.400;11.770;2024-03-06T14:10:48;14.70;63.10
14850;DHT22;7517;48.400;11.770;2024-03-06T14:13:17;14.70;63.20
14850;DHT22;7517;48.400;11.770;2024-03-06T14:15:44;14.70;63.30
14850;DHT22;7517;48.400;11.770;2024-03-06T14:18:13;14.70;64.10
14850;DHT22;7517;48.400;11.770;2024-03-06T14:20:40;14.70;64.00
14850;DHT22;7517;48.400;11.770;2024-03-06T14:23:10;14.70;63.60
14850;DHT22;7517;48.400;11.770;2024-03-06T14:25:38;14.70;63.50
14850;DHT22;7517;48.400;11.770;2024-03-06T14:28:05;14.60;63.10
14850;DHT22;7517;48.400;11.770;2024-03-06T14:30:34;14.70;63.20
14850;DHT22;7517;48.400;11.770;2024-03-06T14:33:03;14.70;63.30
14850;DHT22;7517;48.400;11.770;2024-03-06T14:35:30;14.70;63.10
14850;DHT22;7517;48.400;11.770;2024-03-06T14:37:58;14.60;63.20
14850;DHT22;7517;48.400;11.770;2024-03-06T14:40:26;14.60;63.20
14850;DHT22;7517;48.400;11.770;2024-03-06T14:42:53;14.60;62.80
14850;DHT22;7517;48.400;11.770;2024-03-06T14:45:20;14.50;63.00
14850;DHT22;7517;48.400;11.770;2024-03-06T14:47:50;14.50;63.30
14850;DHT22;7517;48.400;11.770;2024-03-06T14:50:17;14.50;63.30
14850;DHT22;7517;48.400;11.770;2024-03-06T14:52:44;14.40;63.30
14850;DHT22;7517;48.400;11.770;2024-03-06T14:55:12;14.40;63.50
14850;DHT22;7517;48.400;11.770;2024-03-06T14:57:39;14.30;63.40
14850;DHT22;7517;48.400;11.770;2024-03-06T15:00:08;14.30;63.70
14850;DHT22;7517;48.400;11.770;2024-03-06T15:02:37;14.30;63.90
14850;DHT22;7517;48.400;11.770;2024-03-06T15:05:08;14.30;64.20
14850;DHT22;7517;48.400;11.770;2024-03-06T15:07:37;14.30;64.20
14850;DHT22;7517;48.400;11.770;2024-03-06T15:10:05;14.30;64.20
14850;DHT22;7517;48.400;11.770;2024-03-06T15:12:33;14.30;64.10
14850;DHT22;7517;48.400;11.770;2024-03-06T15:15:02;14.30;64.10
14850;DHT22;7517;48.400;11.770;2024-03-06T15:17:33;14.30;64.30
14850;DHT22;7517;48.400;11.770;2024-03-06T15:20:04;14.30;64.20
14850;DHT22;7517;48.400;11.770;2024-03-06T15:22:37;14.40;63.90
14850;DHT22;7517;48.400;11.770;2024-03-06T15:25:08;14.40;63.70
14850;DHT22;7517;48.400;11.770;2024-03-06T15:27:35;14.40;64.00
14850;DHT22;7517;48.400;11.770;2024-03-06T15:30:03;14.40;64.60
14850;DHT22;7517;48.400;11.770;2024-03-06T15:32:32;14.40;64.60
14850;DHT22;7517;48.400;11.770;2024-03-06T15:34:59;14.40;64.50
14850;DHT22;7517;48.400;11.770;2024-03-06T15:37:26;14.40;65.40
14850;DHT22;7517;48.400;11.770;2024-03-06T15:39:56;14.40;64.70
14850;DHT22;7517;48.400;11.770;2024-03-06T15:42:24;14.30;64.60
14850;DHT22;7517;48.400;11.770;2024-03-06T15:44:52;14.30;64.60